createdAt,value
2018-08-10T00:05:11.287Z,23.5
2018-08-10T00:15:10.532Z,23.3
2018-08-10T00:25:09.785Z,23.2
2018-08-10T00:35:09.022Z,23.1
2018-08-10T00:45:08.264Z,22.9
2018-08-10T00:55:07.506Z,22.9
2018-08-10T01:05:06.750Z,22.8
2018-08-10T01:15:05.994Z,22.7
2018-08-10T01:25:05.242Z,22.7
2018-08-10T01:35:04.480Z,22.7
2018-08-10T01:45:03.723Z,22.8
2018-08-10T01:55:02.968Z,22.9
2018-08-10T02:05:02.214Z,22.9
2018-08-10T02:15:01.454Z,23
2018-08-10T02:25:00.696Z,23
2018-08-10T02:34:59.955Z,23
2018-08-10T02:44:59.190Z,23.1
2018-08-10T02:54:58.425Z,23.1
2018-08-10T03:04:57.669Z,23
2018-08-10T03:14:56.913Z,22.9
2018-08-10T03:24:56.154Z,22.9
2018-08-10T03:34:55.403Z,22.8
2018-08-10T03:44:54.641Z,22.7
2018-08-10T03:54:53.885Z,22.6
2018-08-10T04:04:53.125Z,22.6
2018-08-10T04:14:52.369Z,22.8
2018-08-10T04:24:51.610Z,23
2018-08-10T04:34:50.859Z,23.3
2018-08-10T04:44:50.096Z,23.5
2018-08-10T04:54:49.390Z,23.8
2018-08-10T05:04:48.586Z,24.1
2018-08-10T05:14:47.830Z,24.3
2018-08-10T05:24:47.113Z,24.5
2018-08-10T05:34:46.323Z,24.8
2018-08-10T05:44:45.564Z,25
2018-08-10T05:54:44.813Z,25.2
2018-08-10T06:04:44.055Z,25.3
2018-08-10T06:14:43.300Z,25.5
2018-08-10T06:24:42.538Z,25.7
2018-08-10T06:34:41.780Z,25.8
2018-08-10T06:44:41.036Z,26
2018-08-10T06:54:40.267Z,26.1
2018-08-10T07:04:39.511Z,26.3
2018-08-10T07:14:38.755Z,26.4
2018-08-10T07:24:37.998Z,26.7
2018-08-10T07:34:37.247Z,27.1
2018-08-10T07:44:36.488Z,27.5
2018-08-10T07:54:35.730Z,27.8
2018-08-10T08:04:34.978Z,28.1
2018-08-10T08:14:34.230Z,28.1
2018-08-10T08:24:33.529Z,28.1
2018-08-10T08:34:32.781Z,28.2
2018-08-10T08:44:31.965Z,28.3
2018-08-10T08:54:31.209Z,28.3
2018-08-10T09:04:30.453Z,28.3
2018-08-10T09:14:29.724Z,28.3
2018-08-10T09:24:28.940Z,28.3
2018-08-10T09:34:28.240Z,27.2
2018-08-10T09:44:27.428Z,27.2
2018-08-10T09:54:26.672Z,27.1
2018-08-10T10:04:25.915Z,27.9
2018-08-10T10:14:25.160Z,27.2
2018-08-10T10:24:24.407Z,26.6
2018-08-10T10:34:23.650Z,27.9
2018-08-10T10:44:22.895Z,27.3
2018-08-10T10:54:22.145Z,27.4
2018-08-10T11:04:21.389Z,25.7
2018-08-10T11:14:20.629Z,27.1
2018-08-10T11:24:19.874Z,26.1
2018-08-10T11:34:19.117Z,26.9
2018-08-10T11:44:18.370Z,25.9
2018-08-10T11:54:17.610Z,27.1
2018-08-10T12:04:16.849Z,27
2018-08-10T12:14:16.103Z,26.7
2018-08-10T12:24:15.335Z,26.1
2018-08-10T12:34:14.579Z,26.1
2018-08-10T12:44:13.823Z,26.4
2018-08-10T12:54:13.073Z,26.9
2018-08-10T13:04:12.350Z,26.9
2018-08-10T13:14:11.554Z,27.3
2018-08-10T13:24:10.800Z,27.2
2018-08-10T13:34:10.042Z,27.2
2018-08-10T13:44:09.285Z,26.1
2018-08-10T13:54:08.529Z,27
2018-08-10T14:04:07.777Z,26
2018-08-10T14:14:07.017Z,26.8
2018-08-10T14:24:06.259Z,26.7
2018-08-10T14:34:05.504Z,26.7
2018-08-10T14:44:04.747Z,26.6
2018-08-10T14:54:03.995Z,25.6
2018-08-10T15:04:03.236Z,26.9
2018-08-10T15:14:02.482Z,25.2
2018-08-10T15:24:01.725Z,26.6
2018-08-10T15:34:00.968Z,25.2
2018-08-10T15:44:00.211Z,26.5
2018-08-10T15:53:59.457Z,26.8
2018-08-10T16:03:58.704Z,26.6
2018-08-10T16:13:57.957Z,26.9
2018-08-10T16:23:57.194Z,26.6
2018-08-10T16:33:56.441Z,26.4
2018-08-10T16:43:55.691Z,26.4
2018-08-10T16:53:54.933Z,26.3
2018-08-10T17:03:54.178Z,26.3
2018-08-10T17:13:53.424Z,26.2
2018-08-10T17:23:52.671Z,26.1
2018-08-10T17:33:51.915Z,25.9
2018-08-10T17:43:51.161Z,25.8
2018-08-10T17:53:50.406Z,25.8
2018-08-10T18:03:49.702Z,25.6
2018-08-10T18:13:48.894Z,25.5
2018-08-10T18:23:48.137Z,25.4
2018-08-10T18:33:47.385Z,25.4
2018-08-10T18:43:46.633Z,25.3
2018-08-10T18:53:45.868Z,25.2
2018-08-10T19:03:45.117Z,25.1
2018-08-10T19:13:44.364Z,25
2018-08-10T19:23:43.605Z,24.9
2018-08-10T19:33:42.855Z,24.8
2018-08-10T19:43:42.092Z,24.7
2018-08-10T19:53:41.337Z,24.7
2018-08-10T20:03:40.577Z,24.7
2018-08-10T20:13:39.827Z,24.6
2018-08-10T20:23:39.120Z,24.6
2018-08-10T20:33:38.313Z,24.6
2018-08-10T20:43:37.556Z,24.6
2018-08-10T20:53:36.799Z,24.6
2018-08-10T21:03:36.041Z,24.5
2018-08-10T21:13:35.283Z,24.4
2018-08-10T21:23:34.526Z,24.4
2018-08-10T21:33:33.764Z,24.4
2018-08-10T21:43:33.015Z,24.4
2018-08-10T21:53:32.259Z,24.4
2018-08-10T22:03:31.535Z,24.4
2018-08-10T22:13:30.736Z,24.4
2018-08-10T22:23:29.978Z,24.3
2018-08-10T22:33:29.219Z,24.2
2018-08-10T22:43:28.460Z,24.3
2018-08-10T22:53:27.702Z,24.3
2018-08-10T23:03:26.945Z,24.3
2018-08-10T23:13:26.187Z,24.3
2018-08-10T23:23:25.425Z,24.2
2018-08-10T23:33:24.675Z,24.1
2018-08-10T23:43:23.909Z,24.1
2018-08-10T23:53:23.154Z,24.1
